Corpus Christi, TX

6:33 PM CST on December 14, 2017 (GMT -0600)
Corpus Christi International | | Change Station

Elev 43 ft 27.77 °N, 97.50 °W | Updated 42 minutes ago

Overcast
Overcast
62 °F
Feels Like 62 °F
N
7
Wind Variable Wind from NE

Today
High -- | Low -- °F
--% Chance of Precip.
Yesterday
High -- | Low -- °F
Precip. -- in
Pressure 29.94 in
Visibility 10.0 miles
Clouds Few 9500 ft
Mostly Cloudy 11000 ft
Overcast 14000 ft
Dew Point 59 °F
Humidity 90%
Rainfall 0.00 in
Snow Depth Not available.
7:12 AM 5:36 PM
Waning Crescent, 9% visible
METAR KCRP 142351Z 05006KT 10SM FEW095 BKN110 OVC140 17/15 A2993 RMK AO2 RAE49 SLP136 P0000 60000 T01670150 10194 20167 50000
Pressure 29.94 in
Visibility 10.0 miles
Clouds Few 9500 ft
Mostly Cloudy 11000 ft
Overcast 14000 ft
Dew Point 59 °F
Humidity 90%
Rainfall 0.00 in
Snow Depth Not available.
7:12 AM 5:36 PM
Waning Crescent, 9% visible
METAR KCRP 142351Z 05006KT 10SM FEW095 BKN110 OVC140 17/15 A2993 RMK AO2 RAE49 SLP136 P0000 60000 T01670150 10194 20167 50000

Get Severe Weather Alerts

Thanks for signing up!

Be on the lookout for a verification email in your inbox.

You'll start receiving the daily forecast at 6 AM.

×

10-Day Weather Forecast

Almanac

Astronomy

Dec. 14, 2017 Rise Set
Actual Time
Civil Twilight
Nautical Twilight
Astronomical Twilight
Moon
Length of Visible Light
Length of Day
Tomorrow will be .
, % of the Moon is Illuminated

Today's Extremes

State Highs State Lows

Community

WunderPhotos

Category 6

Welcome to Category 6. This is the collective home for Weather Underground's featured writeups by Dr. Jeff Masters (right), Bob Henson (left), Chris Burt, and other regular contributors.

Nearby

Air Quality

  Air Quality AQ Index Pollutant
Not available.

Snow Depth

Station Depth Elevation

Earthquake Activity

City Distance Mag. Time & Date
Minimum magnitude displayed is 2.5.

Coastal Water Temperatures

Place Temperature

Stations

Nearby Weather Stations

Station Location Temp. Windchill Dew Point Humidity Wind Precip. Elev Updated Type
                   

Watches & Warnings

There are currently no watches in effect.